createdAt,value
2023-01-12T00:00:37.406Z,21.40
2023-01-12T00:03:20.328Z,21.40
2023-01-12T00:05:50.491Z,21.40
2023-01-12T00:08:19.547Z,21.40
2023-01-12T00:10:48.323Z,21.40
2023-01-12T00:13:17.422Z,21.40
2023-01-12T00:16:00.101Z,21.40
2023-01-12T00:18:29.191Z,21.40
2023-01-12T00:20:59.385Z,21.30
2023-01-12T00:23:30.383Z,21.40
2023-01-12T00:25:59.219Z,21.40
2023-01-12T00:28:28.335Z,21.40
2023-01-12T00:31:02.160Z,21.40
2023-01-12T00:33:31.319Z,21.40
2023-01-12T00:36:05.694Z,21.40
2023-01-12T00:38:37.185Z,21.40
2023-01-12T00:41:07.578Z,21.40
2023-01-12T00:43:54.493Z,21.30
2023-01-12T00:46:31.661Z,21.30
2023-01-12T00:49:00.816Z,21.30
2023-01-12T00:51:31.086Z,21.30
2023-01-12T00:54:04.430Z,21.30
2023-01-12T00:56:33.459Z,21.20
2023-01-12T00:59:03.047Z,21.20
2023-01-12T01:01:34.439Z,21.20
2023-01-12T01:04:03.922Z,21.30
2023-01-12T01:06:34.147Z,21.20
2023-01-12T01:09:03.218Z,21.20
2023-01-12T01:11:32.284Z,21.20
2023-01-12T01:14:01.869Z,21.20
2023-01-12T01:16:31.290Z,21.20
2023-01-12T01:19:03.216Z,21.20
2023-01-12T01:21:34.374Z,21.20
2023-01-12T01:24:03.524Z,21.20
2023-01-12T01:26:33.727Z,21.20
2023-01-12T01:29:02.842Z,21.20
2023-01-12T01:31:31.864Z,21.20
2023-01-12T01:34:01.016Z,21.20
2023-01-12T01:36:29.858Z,21.20
2023-01-12T01:39:00.738Z,21.20
2023-01-12T01:41:33.472Z,21.20
2023-01-12T01:44:06.130Z,21.30
2023-01-12T01:46:45.102Z,21.30
2023-01-12T01:49:31.704Z,21.30
2023-01-12T01:52:07.235Z,21.30
2023-01-12T01:54:43.995Z,21.40
2023-01-12T01:57:15.705Z,21.40
2023-01-12T01:59:52.056Z,21.50
2023-01-12T02:02:21.158Z,21.50
2023-01-12T02:04:50.368Z,21.50
2023-01-12T02:07:19.287Z,21.50
2023-01-12T02:09:49.747Z,21.50
2023-01-12T02:12:35.771Z,21.60
2023-01-12T02:15:23.108Z,21.60
2023-01-12T02:18:14.005Z,21.60
2023-01-12T02:21:01.871Z,21.60
2023-01-12T02:24:28.035Z,21.70
2023-01-12T02:27:26.521Z,21.70
2023-01-12T02:30:51.361Z,21.80
2023-01-12T02:33:43.497Z,21.80
2023-01-12T02:36:25.588Z,21.80
2023-01-12T02:39:05.547Z,21.80
2023-01-12T02:41:59.731Z,21.80
2023-01-12T02:44:40.825Z,21.90
2023-01-12T02:47:19.623Z,21.90
2023-01-12T02:49:57.563Z,21.90
2023-01-12T02:52:31.540Z,22.00
2023-01-12T02:55:04.961Z,22.00
2023-01-12T02:57:38.468Z,22.00
2023-01-12T03:00:10.556Z,22.00
2023-01-12T03:02:40.179Z,22.00
2023-01-12T03:05:11.317Z,22.10
2023-01-12T03:07:49.945Z,22.10
2023-01-12T03:10:42.712Z,22.10
2023-01-12T03:13:16.998Z,22.20
2023-01-12T03:15:51.151Z,22.20
2023-01-12T03:18:30.124Z,22.20
2023-01-12T03:21:07.973Z,22.20
2023-01-12T03:23:45.685Z,22.30
2023-01-12T03:26:24.131Z,22.30
2023-01-12T03:29:01.801Z,22.30
2023-01-12T03:31:31.857Z,22.30
2023-01-12T03:34:01.832Z,22.40
2023-01-12T03:36:46.600Z,22.40
2023-01-12T03:39:26.488Z,22.40
2023-01-12T03:42:03.199Z,22.40
2023-01-12T03:44:42.251Z,22.40
2023-01-12T03:47:29.274Z,22.40
2023-01-12T03:50:04.974Z,22.40
2023-01-12T03:52:39.630Z,22.40
2023-01-12T03:55:13.739Z,22.40
2023-01-12T03:57:45.647Z,22.40
2023-01-12T04:00:18.044Z,22.40
2023-01-12T04:02:48.049Z,22.40
2023-01-12T04:05:17.549Z,22.40
2023-01-12T04:07:47.983Z,22.50
2023-01-12T04:10:17.383Z,22.50
2023-01-12T04:12:46.467Z,22.60
2023-01-12T04:15:15.428Z,22.50
2023-01-12T04:17:44.482Z,22.50
2023-01-12T04:20:14.623Z,22.60
2023-01-12T04:22:43.639Z,22.60
2023-01-12T04:25:16.727Z,22.60
2023-01-12T04:27:49.658Z,22.70
2023-01-12T04:30:23.541Z,22.70
2023-01-12T04:32:53.201Z,22.70
2023-01-12T04:35:22.046Z,22.70
2023-01-12T04:37:51.887Z,22.80
2023-01-12T04:40:22.345Z,22.80
2023-01-12T04:43:06.998Z,22.80
2023-01-12T04:45:39.887Z,22.80
2023-01-12T04:48:12.779Z,22.80
2023-01-12T04:50:42.754Z,22.80
2023-01-12T04:53:13.860Z,22.80
2023-01-12T04:55:45.192Z,22.80
2023-01-12T04:58:14.366Z,22.80
2023-01-12T05:00:43.559Z,22.80
2023-01-12T05:03:14.132Z,22.90
2023-01-12T05:05:43.334Z,22.90
2023-01-12T05:08:29.910Z,22.90
2023-01-12T05:11:02.373Z,22.90
2023-01-12T05:13:33.284Z,22.90
2023-01-12T05:16:10.962Z,22.90
2023-01-12T05:18:40.261Z,22.90
2023-01-12T05:21:09.114Z,22.90
2023-01-12T05:23:38.296Z,22.90
2023-01-12T05:26:08.970Z,22.90
2023-01-12T05:28:38.094Z,22.90
2023-01-12T05:31:10.167Z,23.00
2023-01-12T05:33:41.632Z,23.00
2023-01-12T05:36:13.999Z,23.00
2023-01-12T05:38:43.772Z,22.90
2023-01-12T05:41:16.810Z,22.90
2023-01-12T05:43:50.812Z,23.00
2023-01-12T05:46:23.057Z,23.00
2023-01-12T05:48:53.964Z,23.00
2023-01-12T05:51:23.347Z,23.10
2023-01-12T05:53:52.598Z,23.10
2023-01-12T05:56:26.172Z,23.10
2023-01-12T05:58:58.455Z,23.10
2023-01-12T06:01:29.372Z,23.10
2023-01-12T06:04:01.715Z,23.10
2023-01-12T06:06:32.921Z,23.10
2023-01-12T06:09:03.854Z,23.10
2023-01-12T06:11:51.434Z,23.10
2023-01-12T06:14:20.516Z,23.10
2023-01-12T06:16:49.330Z,23.20
2023-01-12T06:19:18.441Z,23.10
2023-01-12T06:21:47.263Z,23.20
2023-01-12T06:24:16.419Z,23.20
2023-01-12T06:26:46.705Z,23.20
2023-01-12T06:29:15.829Z,23.20
2023-01-12T06:31:44.867Z,23.20
2023-01-12T06:34:14.224Z,23.20
2023-01-12T06:36:43.370Z,23.20
2023-01-12T06:39:14.128Z,23.20
2023-01-12T06:42:00.143Z,23.20
2023-01-12T06:44:30.619Z,23.20
2023-01-12T06:46:59.457Z,23.20
2023-01-12T06:49:28.550Z,23.30
2023-01-12T06:51:57.361Z,23.30
2023-01-12T06:54:26.472Z,23.30
2023-01-12T06:56:55.793Z,23.30
2023-01-12T06:59:24.982Z,23.30
2023-01-12T07:01:55.293Z,23.30
2023-01-12T07:04:24.589Z,23.30
2023-01-12T07:06:56.189Z,23.30
2023-01-12T07:09:25.393Z,23.30
2023-01-12T07:11:54.246Z,23.40
2023-01-12T07:14:23.324Z,23.40
2023-01-12T07:16:52.169Z,23.40
2023-01-12T07:19:23.022Z,23.40
2023-01-12T07:21:52.050Z,23.50
2023-01-12T07:24:21.162Z,23.50
2023-01-12T07:26:50.850Z,23.50
2023-01-12T07:29:19.936Z,23.50
2023-01-12T07:31:50.143Z,23.50
2023-01-12T07:34:19.517Z,23.50
2023-01-12T07:36:51.485Z,23.50
2023-01-12T07:39:20.824Z,23.60
2023-01-12T07:42:07.214Z,23.50
2023-01-12T07:44:40.305Z,23.50
2023-01-12T07:47:09.195Z,23.50
2023-01-12T07:49:38.413Z,23.50
2023-01-12T07:52:08.862Z,23.60
2023-01-12T07:54:37.933Z,23.60
2023-01-12T07:57:10.872Z,23.60
2023-01-12T07:59:39.924Z,23.60
2023-01-12T08:02:16.453Z,23.60
2023-01-12T08:04:45.862Z,23.60
2023-01-12T08:07:16.173Z,23.60
2023-01-12T08:09:45.356Z,23.60
2023-01-12T08:12:14.348Z,23.60
2023-01-12T08:14:43.793Z,23.60
2023-01-12T08:17:20.107Z,23.50
2023-01-12T08:19:59.695Z,23.50
2023-01-12T08:22:36.625Z,23.50
2023-01-12T08:25:13.466Z,23.50
2023-01-12T08:27:51.047Z,23.50
2023-01-12T08:30:25.891Z,23.50
2023-01-12T08:32:58.675Z,23.50
2023-01-12T08:35:33.492Z,23.40
2023-01-12T08:38:03.790Z,23.40
2023-01-12T08:40:46.825Z,23.40
2023-01-12T08:43:35.685Z,23.40
2023-01-12T08:46:08.037Z,23.40
2023-01-12T08:48:37.543Z,23.40
2023-01-12T08:51:09.288Z,23.40
2023-01-12T08:53:39.461Z,23.40
2023-01-12T08:56:09.374Z,23.40
2023-01-12T08:58:38.662Z,23.40
2023-01-12T09:01:09.969Z,23.40
2023-01-12T09:03:39.968Z,23.50
2023-01-12T09:06:14.836Z,23.50
2023-01-12T09:08:46.113Z,23.50
2023-01-12T09:11:16.956Z,23.50
2023-01-12T09:13:46.044Z,23.60
2023-01-12T09:16:19.049Z,23.70
2023-01-12T09:18:48.225Z,23.80
2023-01-12T09:21:20.303Z,23.80
2023-01-12T09:23:51.248Z,23.80
2023-01-12T09:26:23.019Z,23.80
2023-01-12T09:28:52.569Z,23.80
2023-01-12T09:31:24.290Z,23.80
2023-01-12T09:33:53.633Z,23.80
2023-01-12T09:36:25.994Z,23.80
2023-01-12T09:38:57.314Z,23.80
2023-01-12T09:41:48.166Z,23.80
2023-01-12T09:44:47.098Z,23.80
2023-01-12T09:47:25.201Z,23.80
2023-01-12T09:50:10.493Z,23.80
2023-01-12T09:52:44.811Z,23.80
2023-01-12T09:55:19.548Z,23.80
2023-01-12T09:58:18.658Z,23.80
2023-01-12T10:00:52.346Z,23.90
2023-01-12T10:03:31.727Z,23.90
2023-01-12T10:06:01.665Z,24.00
2023-01-12T10:08:38.264Z,23.90
2023-01-12T10:11:18.387Z,23.90
2023-01-12T10:14:25.578Z,24.00
2023-01-12T10:17:38.571Z,24.00
2023-01-12T10:20:22.297Z,24.00
2023-01-12T10:22:54.804Z,24.00
2023-01-12T10:25:38.984Z,24.00
2023-01-12T10:28:17.912Z,24.00
2023-01-12T10:30:47.603Z,24.00
2023-01-12T10:33:20.259Z,24.00
2023-01-12T10:35:54.125Z,24.00
2023-01-12T10:38:28.857Z,24.00
2023-01-12T10:41:16.763Z,24.10
2023-01-12T10:44:06.281Z,24.10
2023-01-12T10:46:36.214Z,24.10
2023-01-12T10:49:20.937Z,24.10
2023-01-12T10:51:55.904Z,24.10
2023-01-12T10:54:28.557Z,24.10
2023-01-12T10:57:04.249Z,24.10
2023-01-12T10:59:39.013Z,24.10
2023-01-12T11:02:17.359Z,24.10
2023-01-12T11:04:50.315Z,24.20
2023-01-12T11:07:25.671Z,24.20
2023-01-12T11:09:55.310Z,24.20
2023-01-12T11:12:31.117Z,24.10
2023-01-12T11:15:05.448Z,24.20
2023-01-12T11:18:01.197Z,24.20
2023-01-12T11:20:38.103Z,24.20
2023-01-12T11:23:15.763Z,24.10
2023-01-12T11:25:50.622Z,24.10
2023-01-12T11:28:29.397Z,24.10
2023-01-12T11:31:06.352Z,24.10
2023-01-12T11:33:43.702Z,24.10
2023-01-12T11:36:20.982Z,24.10
2023-01-12T11:38:55.472Z,24.20
2023-01-12T11:41:34.396Z,24.20
2023-01-12T11:44:15.374Z,24.30
2023-01-12T11:46:50.585Z,24.30
2023-01-12T11:49:30.302Z,24.40
2023-01-12T11:52:02.383Z,24.40
2023-01-12T11:54:33.241Z,24.30
2023-01-12T11:57:34.543Z,24.20
2023-01-12T12:00:24.781Z,24.20
2023-01-12T12:03:10.482Z,24.20
2023-01-12T12:05:50.579Z,24.20
2023-01-12T12:08:41.134Z,24.20
2023-01-12T12:11:23.423Z,24.20
2023-01-12T12:14:08.318Z,24.20
2023-01-12T12:16:49.995Z,24.20
2023-01-12T12:19:43.893Z,24.20
2023-01-12T12:22:34.912Z,24.20
2023-01-12T12:25:18.599Z,24.20
2023-01-12T12:28:11.087Z,24.40
2023-01-12T12:31:06.359Z,24.30
2023-01-12T12:33:58.141Z,24.30
2023-01-12T12:36:37.118Z,24.30
2023-01-12T12:39:37.095Z,24.30
2023-01-12T12:42:46.432Z,24.30
2023-01-12T12:45:28.816Z,24.30
2023-01-12T12:48:07.175Z,24.30
2023-01-12T12:50:44.370Z,24.40
2023-01-12T12:53:29.065Z,24.30
2023-01-12T12:56:03.719Z,24.30
2023-01-12T12:58:45.973Z,24.40
2023-01-12T13:01:43.436Z,24.40
2023-01-12T13:04:14.591Z,24.30
2023-01-12T13:06:50.597Z,24.30
2023-01-12T13:09:42.177Z,24.30
2023-01-12T13:12:33.145Z,24.30
2023-01-12T13:15:26.415Z,24.30
2023-01-12T13:17:57.313Z,24.30
2023-01-12T13:21:02.075Z,24.30
2023-01-12T13:23:50.647Z,24.20
2023-01-12T13:26:52.273Z,24.20
2023-01-12T13:29:40.683Z,24.20
2023-01-12T13:32:51.992Z,24.20
2023-01-12T13:35:44.582Z,24.20
2023-01-12T13:38:24.523Z,24.20
2023-01-12T13:40:55.988Z,24.20
2023-01-12T13:43:33.142Z,24.20
2023-01-12T13:46:06.712Z,24.10
2023-01-12T13:48:37.424Z,24.20
2023-01-12T13:51:18.441Z,24.20
2023-01-12T13:54:00.192Z,24.20
2023-01-12T13:56:29.595Z,24.20
2023-01-12T13:59:03.876Z,24.10
2023-01-12T14:01:37.304Z,24.10
2023-01-12T14:04:31.389Z,24.10
2023-01-12T14:07:13.439Z,24.10
2023-01-12T14:09:56.446Z,24.00
2023-01-12T14:13:07.284Z,24.10
2023-01-12T14:15:57.613Z,24.00
2023-01-12T14:18:29.431Z,24.00
2023-01-12T14:21:00.523Z,24.00
2023-01-12T14:23:33.788Z,23.90
2023-01-12T14:26:08.136Z,23.90
2023-01-12T14:28:38.634Z,23.90
2023-01-12T14:31:18.839Z,23.90
2023-01-12T14:33:53.064Z,23.90
2023-01-12T14:36:28.612Z,23.80
2023-01-12T14:39:00.691Z,23.80
2023-01-12T14:41:49.027Z,23.70
2023-01-12T14:44:39.483Z,23.70
2023-01-12T14:47:10.865Z,23.60
2023-01-12T14:49:40.245Z,23.60
2023-01-12T14:52:27.123Z,23.50
2023-01-12T14:54:56.310Z,23.50
2023-01-12T14:57:34.593Z,23.50
2023-01-12T15:00:06.090Z,23.40
2023-01-12T15:02:40.152Z,23.40
2023-01-12T15:05:23.040Z,23.40
2023-01-12T15:07:58.760Z,23.30
2023-01-12T15:10:33.593Z,23.30
2023-01-12T15:13:26.459Z,23.20
2023-01-12T15:16:15.315Z,23.20
2023-01-12T15:19:03.699Z,23.20
2023-01-12T15:21:51.876Z,23.20
2023-01-12T15:24:43.341Z,23.10
2023-01-12T15:27:15.673Z,23.10
2023-01-12T15:29:44.666Z,23.10
2023-01-12T15:32:21.158Z,23.00
2023-01-12T15:34:51.480Z,23.00
2023-01-12T15:37:21.783Z,23.00
2023-01-12T15:39:50.675Z,22.90
2023-01-12T15:42:22.776Z,22.90
2023-01-12T15:44:53.947Z,22.90
2023-01-12T15:47:23.615Z,22.90
2023-01-12T15:49:54.380Z,22.80
2023-01-12T15:52:26.558Z,22.80
2023-01-12T15:54:55.371Z,22.80
2023-01-12T15:57:24.428Z,22.80
2023-01-12T15:59:53.520Z,22.70
2023-01-12T16:02:34.437Z,22.70
2023-01-12T16:05:06.773Z,22.70
2023-01-12T16:07:35.960Z,22.70
2023-01-12T16:10:06.670Z,22.70
2023-01-12T16:12:37.061Z,22.70
2023-01-12T16:15:07.410Z,22.60
2023-01-12T16:17:36.804Z,22.60
2023-01-12T16:20:09.221Z,22.60
2023-01-12T16:22:38.319Z,22.60
2023-01-12T16:25:08.759Z,22.60
2023-01-12T16:27:38.798Z,22.50
2023-01-12T16:30:13.163Z,22.50
2023-01-12T16:32:46.469Z,22.50
2023-01-12T16:35:17.421Z,22.50
2023-01-12T16:37:46.568Z,22.50
2023-01-12T16:40:15.737Z,22.50
2023-01-12T16:42:44.839Z,22.40
2023-01-12T16:45:13.872Z,22.40
2023-01-12T16:47:42.940Z,22.40
2023-01-12T16:50:11.829Z,22.40
2023-01-12T16:52:42.304Z,22.40
2023-01-12T16:55:11.238Z,22.40
2023-01-12T16:57:41.129Z,22.40
2023-01-12T17:00:12.399Z,22.40
2023-01-12T17:02:41.880Z,22.40
2023-01-12T17:05:12.026Z,22.40
2023-01-12T17:07:43.184Z,22.30
2023-01-12T17:10:12.945Z,22.30
2023-01-12T17:12:58.059Z,22.30
2023-01-12T17:15:31.557Z,22.30
2023-01-12T17:18:01.231Z,22.30
2023-01-12T17:20:30.415Z,22.20
2023-01-12T17:23:01.888Z,22.20
2023-01-12T17:25:30.781Z,22.20
2023-01-12T17:27:59.970Z,22.20
2023-01-12T17:30:28.904Z,22.20
2023-01-12T17:32:58.056Z,22.20
2023-01-12T17:35:27.402Z,22.20
2023-01-12T17:37:56.589Z,22.20
2023-01-12T17:40:27.403Z,22.20
2023-01-12T17:43:07.746Z,22.10
2023-01-12T17:45:42.609Z,22.10
2023-01-12T17:48:13.239Z,22.10
2023-01-12T17:50:42.291Z,22.10
2023-01-12T17:53:11.714Z,22.10
2023-01-12T17:55:48.557Z,22.10
2023-01-12T17:58:18.675Z,22.10
2023-01-12T18:00:47.537Z,22.10
2023-01-12T18:03:16.721Z,22.10
2023-01-12T18:05:50.018Z,22.10
2023-01-12T18:08:22.668Z,22.10
2023-01-12T18:10:52.925Z,22.10
2023-01-12T18:13:22.057Z,22.10
2023-01-12T18:15:51.096Z,22.10
2023-01-12T18:18:20.259Z,22.10
2023-01-12T18:20:52.321Z,22.10
2023-01-12T18:23:21.810Z,22.10
2023-01-12T18:25:52.082Z,22.20
2023-01-12T18:28:21.195Z,22.20
2023-01-12T18:30:50.221Z,22.20
2023-01-12T18:33:19.344Z,22.20
2023-01-12T18:35:48.190Z,22.20
2023-01-12T18:38:17.285Z,22.30
2023-01-12T18:41:06.692Z,22.30
2023-01-12T18:43:36.230Z,22.30
2023-01-12T18:46:13.248Z,22.30
2023-01-12T18:48:45.730Z,22.40
2023-01-12T18:51:34.110Z,22.40
2023-01-12T18:54:03.211Z,22.40
2023-01-12T18:56:32.035Z,22.40
2023-01-12T18:59:04.283Z,22.40
2023-01-12T19:01:33.162Z,22.40
2023-01-12T19:04:02.757Z,22.50
2023-01-12T19:06:43.068Z,22.50
2023-01-12T19:09:31.196Z,22.50
2023-01-12T19:12:01.558Z,22.50
2023-01-12T19:14:49.655Z,22.40
2023-01-12T19:17:27.947Z,22.40
2023-01-12T19:19:58.829Z,22.40
2023-01-12T19:22:46.620Z,22.40
2023-01-12T19:25:35.574Z,22.50
2023-01-12T19:28:25.878Z,22.50
2023-01-12T19:31:01.871Z,22.50
2023-01-12T19:33:31.402Z,22.50
2023-01-12T19:36:06.380Z,22.60
2023-01-12T19:38:36.026Z,22.60
2023-01-12T19:41:12.698Z,22.50
2023-01-12T19:43:45.233Z,22.60
2023-01-12T19:46:15.956Z,22.60
2023-01-12T19:48:45.573Z,22.60
2023-01-12T19:51:14.749Z,22.60
2023-01-12T19:53:43.547Z,22.70
2023-01-12T19:56:14.575Z,22.70
2023-01-12T19:58:45.032Z,22.70
2023-01-12T20:01:23.189Z,22.70
2023-01-12T20:03:52.623Z,22.70
2023-01-12T20:06:21.781Z,22.70
2023-01-12T20:08:50.652Z,22.70
2023-01-12T20:11:19.933Z,22.80
2023-01-12T20:13:48.739Z,22.80
2023-01-12T20:16:17.975Z,22.80
2023-01-12T20:18:48.718Z,22.80
2023-01-12T20:21:17.816Z,22.80
2023-01-12T20:23:46.609Z,22.80
2023-01-12T20:26:15.914Z,22.90
2023-01-12T20:28:44.986Z,22.80
2023-01-12T20:31:17.226Z,22.90
2023-01-12T20:33:47.726Z,22.80
2023-01-12T20:36:18.678Z,22.90
2023-01-12T20:38:47.980Z,22.90
2023-01-12T20:41:17.083Z,22.90
2023-01-12T20:43:46.157Z,22.90
2023-01-12T20:46:15.948Z,22.90
2023-01-12T20:48:47.116Z,22.90
2023-01-12T20:51:18.148Z,22.90
2023-01-12T20:53:47.064Z,22.90
2023-01-12T20:56:16.201Z,22.90
2023-01-12T20:58:45.056Z,23.00
2023-01-12T21:01:16.688Z,23.00
2023-01-12T21:03:47.303Z,23.00
2023-01-12T21:06:18.706Z,23.00
2023-01-12T21:08:48.994Z,23.10
2023-01-12T21:11:21.463Z,23.10
2023-01-12T21:13:50.362Z,23.10
2023-01-12T21:16:22.667Z,23.10
2023-01-12T21:18:53.619Z,23.20
2023-01-12T21:21:22.841Z,23.20
2023-01-12T21:23:51.712Z,23.20
2023-01-12T21:26:21.082Z,23.20
2023-01-12T21:28:49.979Z,23.30
2023-01-12T21:31:19.117Z,23.20
2023-01-12T21:33:48.011Z,23.20
2023-01-12T21:36:19.788Z,23.30
2023-01-12T21:38:51.984Z,23.20
2023-01-12T21:41:22.507Z,23.30
2023-01-12T21:43:53.200Z,23.30
2023-01-12T21:46:22.866Z,23.30
2023-01-12T21:48:51.746Z,23.40
2023-01-12T21:51:22.213Z,23.40
2023-01-12T21:53:51.685Z,23.40
2023-01-12T21:56:20.828Z,23.40
2023-01-12T21:58:49.742Z,23.30
2023-01-12T22:01:19.459Z,23.40
2023-01-12T22:03:48.374Z,23.40
2023-01-12T22:06:17.522Z,23.40
2023-01-12T22:08:47.854Z,23.40
2023-01-12T22:11:18.376Z,23.40
2023-01-12T22:13:47.254Z,23.50
2023-01-12T22:16:17.948Z,23.50
2023-01-12T22:18:50.199Z,23.50
2023-01-12T22:21:21.897Z,23.50
2023-01-12T22:23:52.065Z,23.50
2023-01-12T22:26:21.809Z,23.50
2023-01-12T22:28:50.676Z,23.50
2023-01-12T22:31:22.958Z,23.50
2023-01-12T22:33:58.660Z,23.50
2023-01-12T22:36:27.842Z,23.50
2023-01-12T22:38:58.077Z,23.50
2023-01-12T22:41:27.738Z,23.50
2023-01-12T22:43:56.887Z,23.50
2023-01-12T22:46:28.338Z,23.50
2023-01-12T22:48:59.365Z,23.50
2023-01-12T22:51:31.357Z,23.50
2023-01-12T22:54:01.587Z,23.50
2023-01-12T22:56:30.863Z,23.50
2023-01-12T22:58:59.671Z,23.50
2023-01-12T23:01:28.965Z,23.50
2023-01-12T23:03:59.174Z,23.50
2023-01-12T23:06:29.068Z,23.50
2023-01-12T23:08:57.914Z,23.50
2023-01-12T23:11:28.429Z,23.50
2023-01-12T23:13:57.242Z,23.50
2023-01-12T23:16:28.635Z,23.50
2023-01-12T23:18:57.601Z,23.50
2023-01-12T23:21:29.105Z,23.50
2023-01-12T23:24:01.377Z,23.60
2023-01-12T23:26:33.989Z,23.50
2023-01-12T23:29:03.590Z,23.50
2023-01-12T23:31:35.093Z,23.50
2023-01-12T23:34:04.079Z,23.50
2023-01-12T23:36:33.335Z,23.50
2023-01-12T23:39:05.695Z,23.60
2023-01-12T23:41:38.558Z,23.70
2023-01-12T23:44:10.779Z,23.60
2023-01-12T23:46:43.178Z,23.60
2023-01-12T23:49:12.750Z,23.60
2023-01-12T23:51:41.633Z,23.60
2023-01-12T23:54:18.452Z,23.60
2023-01-12T23:56:53.429Z,23.60
2023-01-12T23:59:22.576Z,23.60
